Airfield :
LOGIN :

Register | Disclaimer

   EN    FR    IT 

 










Legend :    VFR   Marginal VFR   IFR   Intensive IFR   Very Intensive IFR
Visi :
Ceiling :
>= 8 km
>= 3000ft
5 to 8 km
1000 to 3000 ft
1500m to 5 km
500 to 1000 ft
800 to 1500m
200 to 500 ft
< 800m
< 200 ft
Symbols :   Thunderstorms  Fog  Heavy snow  Heavy precipitations  Wind > 20 kt
SIGMETs :     Misc.  Thunderstorms  Icing  Turbulence  Mountain Waves  Volcanic Ashes







- Airport Elevation : 22 ft
- IATA code : TUN


DTTA - Tunis Carthage

CURRENT METAR :
  • 262100Z 29004KT 9999 TS SCT026TCU FEW030CB 23/16 Q1018

EXPIRED METARs :
  • 262030Z 33004KT 9999 TS SCT026TCU FEW030CB 23/16 Q1018
  • 262000Z 03003KT 350V100 9999 SCT026TCU 23/16 Q1018 NOSIG
  • 261930Z 35005KT 9999 SCT026TCU 23/16 Q1018 NOSIG
  • 261900Z 36006KT 9999 SCT026TCU 23/16 Q1017 NOSIG
  • 261830Z 35006KT 9999 SCT026TCU 23/16 Q1017 NOSIG

TAF TAF DTTA
Valid from the 26 at 18:00 until the 27 at 18:00 UTC


261802Z 2618/2718 01010KT 9999 SCT020TCU FEW030CB
BECMG 2700/2702 30008KT
No reported NOTAMs for that airfield.



MET'MAP, your aeronautical weather chart ! - Copyright ORBIFLY December 2007 - Disclaimer

ORBIFLY MET'MAP TEAM :

Programming & Development : Alexandra Zaïnal
Concept & Development : Baudouin d'Aumeries
Co-Development & Prog : Marc-Olivier Méhu
Technical & hardware support : Manuel Goepfert

Contact : metmap@orbifly.com




SOURCES & CREDITS :

   NOAA